createdAt,value
2022-10-05T00:01:27.395Z,7.16
2022-10-05T00:03:59.127Z,7.19
2022-10-05T00:06:28.429Z,7.23
2022-10-05T00:08:54.997Z,7.20
2022-10-05T00:11:21.593Z,7.16
2022-10-05T00:13:48.244Z,7.13
2022-10-05T00:16:19.642Z,7.03
2022-10-05T00:18:48.371Z,7.03
2022-10-05T00:21:26.287Z,7.03
2022-10-05T00:23:54.126Z,7.07
2022-10-05T00:26:22.216Z,7.11
2022-10-05T00:28:48.868Z,7.08
2022-10-05T00:31:17.414Z,7.08
2022-10-05T00:33:44.045Z,7.10
2022-10-05T00:36:10.968Z,7.13
2022-10-05T00:38:37.616Z,7.10
2022-10-05T00:41:07.420Z,7.00
2022-10-05T00:43:40.226Z,6.95
2022-10-05T00:46:11.043Z,6.93
2022-10-05T00:48:52.918Z,6.89
2022-10-05T00:51:22.221Z,6.87
2022-10-05T00:54:01.145Z,6.85
2022-10-05T00:56:46.719Z,6.84
2022-10-05T00:59:16.454Z,6.85
2022-10-05T01:01:51.028Z,6.84
2022-10-05T01:04:20.672Z,6.85
2022-10-05T01:06:47.522Z,6.82
2022-10-05T01:09:26.609Z,6.84
2022-10-05T01:11:59.185Z,6.82
2022-10-05T01:14:28.930Z,6.88
2022-10-05T01:17:10.938Z,6.85
2022-10-05T01:19:37.550Z,6.80
2022-10-05T01:22:13.003Z,6.75
2022-10-05T01:24:43.567Z,6.68
2022-10-05T01:27:30.652Z,6.65
2022-10-05T01:30:02.826Z,6.68
2022-10-05T01:32:33.216Z,6.70
2022-10-05T01:34:59.765Z,6.71
2022-10-05T01:37:29.367Z,6.65
2022-10-05T01:40:11.189Z,6.61
2022-10-05T01:42:46.408Z,6.58
2022-10-05T01:45:24.876Z,6.58
2022-10-05T01:47:57.293Z,6.56
2022-10-05T01:50:42.506Z,6.59
2022-10-05T01:53:20.912Z,6.56
2022-10-05T01:55:47.463Z,6.58
2022-10-05T01:58:27.113Z,6.55
2022-10-05T02:00:53.687Z,6.51
2022-10-05T02:03:37.067Z,6.45
2022-10-05T02:06:15.676Z,6.41
2022-10-05T02:09:00.965Z,6.39
2022-10-05T02:11:27.704Z,6.34
2022-10-05T02:14:08.607Z,6.36
2022-10-05T02:16:38.851Z,6.35
2022-10-05T02:19:25.683Z,6.33
2022-10-05T02:21:59.106Z,6.30
2022-10-05T02:24:29.035Z,6.27
2022-10-05T02:26:56.625Z,6.22
2022-10-05T02:29:26.376Z,6.24
2022-10-05T02:31:57.350Z,6.24
2022-10-05T02:34:27.040Z,6.29
2022-10-05T02:37:01.815Z,6.28
2022-10-05T02:39:33.095Z,6.28
2022-10-05T02:42:18.386Z,6.26
2022-10-05T02:45:05.665Z,6.24
2022-10-05T02:47:44.254Z,6.18
2022-10-05T02:50:16.872Z,6.19
2022-10-05T02:52:49.439Z,6.25
2022-10-05T02:55:19.352Z,6.30
2022-10-05T02:57:45.970Z,6.31
2022-10-05T03:00:17.741Z,6.36
2022-10-05T03:03:03.090Z,6.44
2022-10-05T03:05:32.502Z,6.38
2022-10-05T03:08:05.919Z,6.33
2022-10-05T03:10:57.871Z,6.24
2022-10-05T03:13:30.620Z,6.22
2022-10-05T03:15:57.271Z,6.20
2022-10-05T03:18:26.339Z,6.15
2022-10-05T03:21:12.116Z,6.16
2022-10-05T03:23:38.706Z,6.14
2022-10-05T03:26:13.686Z,6.08
2022-10-05T03:28:47.063Z,6.10
2022-10-05T03:31:13.659Z,6.18
2022-10-05T03:34:12.801Z,6.17
2022-10-05T03:36:49.545Z,6.09
2022-10-05T03:39:19.237Z,6.05
2022-10-05T03:42:02.210Z,6.08
2022-10-05T03:44:36.681Z,6.18
2022-10-05T03:47:41.565Z,6.20
2022-10-05T03:50:24.259Z,6.18
2022-10-05T03:52:59.979Z,6.21
2022-10-05T03:55:35.555Z,6.28
2022-10-05T03:58:15.952Z,6.22
2022-10-05T04:00:45.213Z,6.17
2022-10-05T04:03:27.230Z,6.12
2022-10-05T04:05:55.639Z,6.07
2022-10-05T04:08:44.113Z,6.05
2022-10-05T04:11:20.545Z,6.01
2022-10-05T04:13:55.357Z,6.01
2022-10-05T04:16:31.488Z,6.04
2022-10-05T04:19:03.012Z,6.16
2022-10-05T04:21:35.216Z,6.29
2022-10-05T04:24:09.427Z,6.31
2022-10-05T04:26:38.844Z,6.26
2022-10-05T04:29:12.890Z,6.25
2022-10-05T04:31:48.672Z,6.27
2022-10-05T04:34:35.645Z,6.24
2022-10-05T04:37:05.268Z,6.25
2022-10-05T04:39:43.799Z,6.29
2022-10-05T04:42:16.677Z,6.40
2022-10-05T04:44:46.032Z,6.41
2022-10-05T04:47:22.616Z,6.39
2022-10-05T04:50:07.840Z,6.35
2022-10-05T04:52:46.889Z,6.29
2022-10-05T04:55:16.445Z,6.36
2022-10-05T04:57:43.068Z,6.29
2022-10-05T05:00:17.196Z,6.24
2022-10-05T05:02:49.991Z,6.17
2022-10-05T05:05:27.557Z,6.16
2022-10-05T05:08:03.834Z,6.19
2022-10-05T05:10:30.358Z,6.28
2022-10-05T05:13:15.704Z,6.36
2022-10-05T05:16:17.767Z,6.38
2022-10-05T05:18:44.414Z,6.35
2022-10-05T05:21:27.141Z,6.31
2022-10-05T05:23:53.779Z,6.30
2022-10-05T05:26:39.151Z,6.28
2022-10-05T05:29:05.899Z,6.25
2022-10-05T05:31:47.335Z,6.31
2022-10-05T05:34:29.499Z,6.39
2022-10-05T05:37:14.574Z,6.40
2022-10-05T05:39:59.753Z,6.55
2022-10-05T05:42:34.309Z,6.66
2022-10-05T05:45:06.773Z,6.67
2022-10-05T05:47:37.975Z,6.69
2022-10-05T05:50:20.069Z,6.61
2022-10-05T05:52:49.529Z,6.59
2022-10-05T05:55:20.326Z,6.51
2022-10-05T05:57:50.130Z,6.45
2022-10-05T06:00:17.700Z,6.47
2022-10-05T06:02:44.298Z,6.48
2022-10-05T06:05:26.256Z,6.52
2022-10-05T06:07:53.935Z,6.58
2022-10-05T06:10:34.967Z,6.63
2022-10-05T06:13:05.564Z,6.69
2022-10-05T06:15:38.741Z,6.64
2022-10-05T06:18:10.560Z,6.53
2022-10-05T06:20:40.623Z,6.53
2022-10-05T06:23:16.989Z,6.51
2022-10-05T06:25:57.214Z,6.45
2022-10-05T06:28:25.348Z,6.41
2022-10-05T06:30:57.749Z,6.49
2022-10-05T06:33:27.147Z,6.56
2022-10-05T06:35:56.522Z,6.63
2022-10-05T06:38:46.500Z,6.64
2022-10-05T06:41:31.680Z,6.74
2022-10-05T06:44:00.567Z,6.90
2022-10-05T06:46:32.328Z,6.97
2022-10-05T06:49:25.123Z,7.00
2022-10-05T06:51:55.393Z,7.10
2022-10-05T06:54:31.212Z,7.11
2022-10-05T06:57:12.985Z,7.15
2022-10-05T06:59:45.809Z,7.26
2022-10-05T07:02:18.483Z,7.34
2022-10-05T07:04:45.077Z,7.36
2022-10-05T07:07:29.860Z,7.32
2022-10-05T07:10:02.441Z,7.23
2022-10-05T07:12:32.889Z,7.22
2022-10-05T07:15:03.182Z,7.27
2022-10-05T07:17:42.506Z,7.34
2022-10-05T07:20:09.108Z,7.43
2022-10-05T07:22:43.033Z,7.53
2022-10-05T07:25:15.786Z,7.61
2022-10-05T07:28:05.371Z,7.62
2022-10-05T07:30:38.245Z,7.55
2022-10-05T07:33:20.885Z,7.52
2022-10-05T07:36:17.561Z,7.54
2022-10-05T07:38:59.430Z,7.57
2022-10-05T07:41:47.724Z,7.55
2022-10-05T07:44:22.795Z,7.47
2022-10-05T07:46:54.793Z,7.42
2022-10-05T07:49:40.013Z,7.38
2022-10-05T07:52:11.397Z,7.37
2022-10-05T07:54:38.067Z,7.34
2022-10-05T07:57:16.959Z,7.28
2022-10-05T07:59:56.489Z,7.32
2022-10-05T08:02:33.533Z,7.37
2022-10-05T08:05:12.751Z,7.42
2022-10-05T08:07:39.627Z,7.44
2022-10-05T08:10:06.224Z,7.48
2022-10-05T08:12:38.961Z,7.54
2022-10-05T08:15:25.848Z,7.55
2022-10-05T08:18:00.085Z,7.54
2022-10-05T08:20:35.912Z,7.63
2022-10-05T08:23:08.987Z,7.66
2022-10-05T08:25:41.877Z,7.65
2022-10-05T08:28:14.494Z,7.64
2022-10-05T08:30:59.506Z,7.68
2022-10-05T08:33:27.901Z,7.69
2022-10-05T08:36:10.783Z,7.73
2022-10-05T08:38:37.701Z,7.76
2022-10-05T08:41:35.565Z,7.82
2022-10-05T08:44:31.369Z,7.69
2022-10-05T08:47:00.874Z,7.56
2022-10-05T08:49:28.990Z,7.50
2022-10-05T08:52:23.369Z,7.50
2022-10-05T08:55:02.027Z,7.40
2022-10-05T08:57:49.022Z,7.45
2022-10-05T09:00:22.524Z,7.51
2022-10-05T09:02:49.248Z,7.59
2022-10-05T09:05:18.741Z,7.78
2022-10-05T09:07:51.274Z,7.97
2022-10-05T09:10:17.854Z,8.22
2022-10-05T09:12:47.661Z,8.39
2022-10-05T09:15:27.818Z,8.40
2022-10-05T09:18:07.291Z,8.28
2022-10-05T09:20:37.018Z,8.05
2022-10-05T09:23:16.576Z,8.04
2022-10-05T09:26:01.817Z,8.00
2022-10-05T09:28:32.990Z,7.91
2022-10-05T09:31:05.844Z,7.81
2022-10-05T09:33:38.645Z,7.78
2022-10-05T09:36:05.249Z,7.67
2022-10-05T09:38:50.393Z,7.68
2022-10-05T09:41:32.142Z,7.71
2022-10-05T09:44:11.348Z,7.75
2022-10-05T09:46:56.424Z,7.83
2022-10-05T09:49:23.016Z,7.97
2022-10-05T09:51:55.829Z,8.02
2022-10-05T09:54:43.708Z,7.99
2022-10-05T09:57:13.041Z,7.98
2022-10-05T10:00:09.526Z,7.95
2022-10-05T10:02:56.884Z,8.08
2022-10-05T10:05:42.536Z,8.03
2022-10-05T10:08:15.106Z,7.91
2022-10-05T10:11:00.175Z,7.87
2022-10-05T10:13:45.735Z,7.87
2022-10-05T10:16:35.727Z,7.90
2022-10-05T10:19:02.282Z,7.97
2022-10-05T10:21:29.528Z,7.96
2022-10-05T10:24:14.889Z,7.98
2022-10-05T10:27:00.195Z,7.81
2022-10-05T10:29:37.683Z,7.70
2022-10-05T10:32:04.314Z,7.63
2022-10-05T10:34:30.863Z,7.57
2022-10-05T10:37:23.707Z,7.56
2022-10-05T10:39:59.518Z,7.59
2022-10-05T10:42:39.899Z,7.78
2022-10-05T10:45:26.260Z,8.38
2022-10-05T10:47:53.227Z,9.72
2022-10-05T10:50:29.305Z,10.88
2022-10-05T10:53:20.581Z,11.71
2022-10-05T10:55:56.609Z,12.14
2022-10-05T10:58:42.215Z,12.26
2022-10-05T11:01:25.118Z,12.79
2022-10-05T11:03:54.526Z,13.84
2022-10-05T11:06:26.342Z,14.97
2022-10-05T11:09:19.100Z,15.81
2022-10-05T11:12:04.292Z,16.49
2022-10-05T11:14:42.422Z,16.03
2022-10-05T11:17:18.460Z,14.30
2022-10-05T11:20:05.186Z,12.97
2022-10-05T11:22:41.297Z,11.31
2022-10-05T11:25:35.410Z,10.49
2022-10-05T11:28:13.445Z,9.88
2022-10-05T11:30:46.131Z,9.69
2022-10-05T11:33:26.393Z,9.47
2022-10-05T11:35:55.885Z,9.18
2022-10-05T11:38:28.477Z,9.07
2022-10-05T11:40:58.133Z,8.94
2022-10-05T11:43:25.101Z,8.86
2022-10-05T11:45:51.716Z,8.75
2022-10-05T11:48:21.365Z,8.68
2022-10-05T11:51:03.187Z,8.51
2022-10-05T11:53:35.995Z,8.35
2022-10-05T11:56:02.691Z,8.29
2022-10-05T11:58:32.589Z,8.29
2022-10-05T12:01:05.693Z,8.35
2022-10-05T12:03:41.383Z,8.18
2022-10-05T12:06:15.826Z,7.99
2022-10-05T12:09:00.678Z,7.83
2022-10-05T12:11:42.804Z,7.76
2022-10-05T12:14:12.448Z,7.74
2022-10-05T12:16:49.823Z,7.73
2022-10-05T12:19:42.865Z,7.73
2022-10-05T12:22:10.723Z,7.63
2022-10-05T12:24:37.307Z,7.62
2022-10-05T12:27:06.782Z,7.55
2022-10-05T12:29:33.464Z,7.57
2022-10-05T12:32:18.743Z,7.68
2022-10-05T12:34:48.798Z,8.31
2022-10-05T12:37:33.867Z,9.02
2022-10-05T12:40:00.406Z,9.56
2022-10-05T12:42:46.073Z,9.51
2022-10-05T12:45:30.923Z,9.24
2022-10-05T12:48:08.405Z,8.90
2022-10-05T12:50:36.846Z,8.69
2022-10-05T12:53:15.361Z,8.65
2022-10-05T12:56:00.670Z,8.71
2022-10-05T12:58:27.297Z,8.82
2022-10-05T13:00:57.429Z,8.75
2022-10-05T13:03:24.029Z,8.67
2022-10-05T13:06:04.073Z,8.52
2022-10-05T13:08:41.975Z,8.42
2022-10-05T13:11:12.724Z,8.34
2022-10-05T13:14:02.458Z,8.11
2022-10-05T13:16:33.823Z,8.06
2022-10-05T13:19:09.737Z,7.95
2022-10-05T13:21:55.238Z,7.87
2022-10-05T13:24:26.685Z,7.80
2022-10-05T13:26:56.129Z,7.78
2022-10-05T13:29:34.810Z,7.80
2022-10-05T13:32:10.488Z,7.81
2022-10-05T13:34:40.278Z,7.87
2022-10-05T13:37:09.681Z,7.86
2022-10-05T13:39:49.504Z,7.89
2022-10-05T13:42:19.273Z,7.88
2022-10-05T13:44:45.867Z,7.88
2022-10-05T13:47:35.104Z,7.93
2022-10-05T13:50:20.524Z,7.96
2022-10-05T13:53:02.459Z,8.00
2022-10-05T13:55:38.418Z,7.90
2022-10-05T13:58:34.720Z,7.87
2022-10-05T14:01:14.881Z,7.85
2022-10-05T14:04:03.931Z,7.82
2022-10-05T14:06:31.083Z,7.80
2022-10-05T14:09:00.314Z,7.66
2022-10-05T14:11:31.340Z,7.58
2022-10-05T14:14:04.526Z,7.52
2022-10-05T14:16:33.461Z,7.47
2022-10-05T14:19:06.375Z,7.41
2022-10-05T14:21:42.834Z,7.40
2022-10-05T14:24:42.412Z,7.39
2022-10-05T14:27:33.885Z,7.36
2022-10-05T14:30:09.598Z,7.38
2022-10-05T14:32:48.061Z,7.39
2022-10-05T14:35:16.037Z,7.38
2022-10-05T14:37:44.423Z,7.35
2022-10-05T14:40:40.186Z,7.40
2022-10-05T14:43:15.816Z,7.43
2022-10-05T14:45:58.692Z,7.48
2022-10-05T14:48:28.060Z,7.43
2022-10-05T14:50:59.599Z,7.40
2022-10-05T14:53:38.003Z,7.42
2022-10-05T14:56:17.746Z,7.46
2022-10-05T14:59:04.161Z,7.42
2022-10-05T15:01:39.357Z,7.41
2022-10-05T15:04:05.964Z,7.34
2022-10-05T15:06:44.972Z,7.29
2022-10-05T15:09:24.739Z,7.27
2022-10-05T15:11:53.302Z,7.22
2022-10-05T15:14:22.867Z,7.21
2022-10-05T15:17:02.615Z,7.14
2022-10-05T15:19:47.304Z,7.16
2022-10-05T15:22:22.822Z,7.19
2022-10-05T15:24:59.144Z,7.10
2022-10-05T15:27:26.246Z,7.08
2022-10-05T15:29:59.834Z,7.05
2022-10-05T15:32:29.432Z,7.05
2022-10-05T15:35:03.999Z,7.03
2022-10-05T15:37:33.404Z,6.99
2022-10-05T15:40:01.333Z,6.96
2022-10-05T15:42:36.483Z,7.01
2022-10-05T15:45:06.583Z,6.99
2022-10-05T15:47:56.312Z,6.96
2022-10-05T15:50:26.321Z,7.02
2022-10-05T15:52:55.788Z,7.02
2022-10-05T15:55:22.385Z,7.02
2022-10-05T15:58:08.493Z,7.00
2022-10-05T16:00:47.422Z,7.04
2022-10-05T16:03:32.612Z,7.07
2022-10-05T16:06:24.592Z,7.05
2022-10-05T16:09:01.176Z,7.11
2022-10-05T16:11:33.241Z,7.09
2022-10-05T16:14:18.685Z,7.06
2022-10-05T16:17:08.406Z,7.04
2022-10-05T16:19:46.212Z,7.03
2022-10-05T16:22:27.770Z,7.00
2022-10-05T16:25:00.534Z,6.97
2022-10-05T16:27:29.954Z,6.99
2022-10-05T16:30:09.548Z,6.96
2022-10-05T16:32:50.773Z,6.99
2022-10-05T16:35:30.193Z,6.98
2022-10-05T16:37:56.934Z,7.00
2022-10-05T16:40:40.298Z,6.96
2022-10-05T16:43:25.790Z,6.99
2022-10-05T16:46:01.948Z,6.94
2022-10-05T16:48:36.776Z,6.99
2022-10-05T16:51:12.295Z,6.95
2022-10-05T16:53:42.365Z,6.94
2022-10-05T16:56:14.975Z,6.86
2022-10-05T16:58:47.563Z,6.87
2022-10-05T17:01:42.280Z,6.79
2022-10-05T17:04:12.205Z,6.76
2022-10-05T17:06:48.064Z,6.73
2022-10-05T17:09:33.432Z,6.75
2022-10-05T17:12:26.831Z,6.77
2022-10-05T17:14:53.456Z,6.78
2022-10-05T17:17:20.727Z,6.75
2022-10-05T17:19:50.077Z,6.78
2022-10-05T17:22:31.471Z,6.80
2022-10-05T17:25:00.851Z,6.86
2022-10-05T17:27:50.655Z,6.94
2022-10-05T17:30:20.548Z,7.08
2022-10-05T17:33:14.316Z,7.24
2022-10-05T17:36:06.293Z,7.18
2022-10-05T17:38:35.542Z,7.07
2022-10-05T17:41:37.088Z,6.98
2022-10-05T17:44:16.361Z,6.93
2022-10-05T17:46:48.308Z,6.85
2022-10-05T17:49:22.927Z,6.87
2022-10-05T17:52:11.079Z,6.91
2022-10-05T17:55:05.148Z,6.90
2022-10-05T17:57:32.110Z,6.88
2022-10-05T18:00:00.762Z,6.76
2022-10-05T18:02:36.821Z,6.65
2022-10-05T18:05:06.582Z,6.65
2022-10-05T18:07:36.880Z,6.62
2022-10-05T18:10:12.331Z,6.58
2022-10-05T18:12:41.593Z,6.53
2022-10-05T18:15:08.178Z,6.50
2022-10-05T18:17:35.172Z,6.48
2022-10-05T18:20:10.593Z,6.49
2022-10-05T18:22:37.189Z,6.53
2022-10-05T18:25:07.944Z,6.54
2022-10-05T18:27:48.563Z,6.49
2022-10-05T18:30:38.407Z,6.47
2022-10-05T18:33:25.424Z,6.40
2022-10-05T18:36:07.365Z,6.35
2022-10-05T18:38:40.248Z,6.34
2022-10-05T18:41:12.982Z,6.34
2022-10-05T18:43:58.401Z,6.29
2022-10-05T18:46:32.278Z,6.21
2022-10-05T18:49:07.975Z,6.17
2022-10-05T18:51:54.765Z,6.16
2022-10-05T18:54:47.061Z,6.17
2022-10-05T18:57:34.406Z,6.21
2022-10-05T19:00:04.036Z,6.24
2022-10-05T19:02:38.629Z,6.27
2022-10-05T19:05:23.825Z,6.27
2022-10-05T19:08:17.476Z,6.28
2022-10-05T19:10:45.837Z,6.28
2022-10-05T19:13:18.361Z,6.23
2022-10-05T19:15:44.983Z,6.25
2022-10-05T19:18:30.762Z,6.20
2022-10-05T19:21:17.046Z,6.28
2022-10-05T19:24:01.868Z,6.33
2022-10-05T19:26:43.234Z,6.28
2022-10-05T19:29:12.722Z,6.33
2022-10-05T19:31:49.328Z,6.34
2022-10-05T19:34:22.236Z,6.31
2022-10-05T19:37:08.073Z,6.34
2022-10-05T19:39:43.253Z,6.42
2022-10-05T19:42:28.184Z,6.47
2022-10-05T19:44:57.919Z,6.45
2022-10-05T19:47:28.323Z,6.55
2022-10-05T19:49:55.680Z,6.50
2022-10-05T19:52:24.949Z,6.52
2022-10-05T19:55:01.986Z,6.52
2022-10-05T19:57:31.671Z,6.49
2022-10-05T19:59:58.657Z,6.51
2022-10-05T20:02:25.730Z,6.53
2022-10-05T20:04:55.057Z,6.49
2022-10-05T20:07:22.934Z,6.48
2022-10-05T20:09:53.938Z,6.54
2022-10-05T20:12:22.915Z,6.53
2022-10-05T20:15:23.686Z,6.55
2022-10-05T20:18:08.820Z,6.53
2022-10-05T20:20:36.987Z,6.50
2022-10-05T20:23:23.513Z,6.50
2022-10-05T20:26:10.480Z,6.54
2022-10-05T20:28:37.533Z,6.53
2022-10-05T20:31:06.576Z,6.52
2022-10-05T20:33:34.467Z,6.52
2022-10-05T20:36:03.689Z,6.49
2022-10-05T20:38:31.668Z,6.53
2022-10-05T20:40:58.535Z,6.49
2022-10-05T20:43:25.115Z,6.49
2022-10-05T20:45:52.321Z,6.48
2022-10-05T20:48:19.574Z,6.51
2022-10-05T20:50:47.336Z,6.49
2022-10-05T20:53:14.089Z,6.49
2022-10-05T20:55:40.754Z,6.45
2022-10-05T20:58:09.042Z,6.49
2022-10-05T21:00:54.133Z,6.48
2022-10-05T21:03:20.740Z,6.46
2022-10-05T21:05:47.377Z,6.43
2022-10-05T21:08:14.168Z,6.37
2022-10-05T21:10:40.822Z,6.36
2022-10-05T21:13:07.484Z,6.39
2022-10-05T21:15:34.125Z,6.38
2022-10-05T21:18:00.730Z,6.41
2022-10-05T21:20:27.380Z,6.47
2022-10-05T21:22:54.035Z,6.47
2022-10-05T21:25:20.673Z,6.44
2022-10-05T21:27:48.678Z,6.42
2022-10-05T21:30:15.515Z,6.40
2022-10-05T21:32:44.574Z,6.43
2022-10-05T21:35:11.638Z,6.42
2022-10-05T21:37:38.300Z,6.47
2022-10-05T21:40:05.124Z,6.48
2022-10-05T21:42:31.786Z,6.50
2022-10-05T21:44:58.402Z,6.54
2022-10-05T21:47:25.539Z,6.55
2022-10-05T21:49:52.191Z,6.55
2022-10-05T21:52:18.895Z,6.54
2022-10-05T21:54:45.821Z,6.56
2022-10-05T21:57:12.775Z,6.55
2022-10-05T21:59:40.408Z,6.57
2022-10-05T22:02:07.280Z,6.55
2022-10-05T22:04:33.944Z,6.51
2022-10-05T22:07:01.224Z,6.50
2022-10-05T22:09:27.924Z,6.47
2022-10-05T22:11:54.971Z,6.42
2022-10-05T22:14:21.697Z,6.39
2022-10-05T22:16:48.433Z,6.38
2022-10-05T22:19:17.632Z,6.39
2022-10-05T22:21:44.323Z,6.41
2022-10-05T22:24:11.731Z,6.44
2022-10-05T22:26:39.352Z,6.43
2022-10-05T22:29:06.049Z,6.42
2022-10-05T22:31:32.815Z,6.40
2022-10-05T22:33:59.511Z,6.44
2022-10-05T22:36:26.206Z,6.45
2022-10-05T22:38:52.773Z,6.49
2022-10-05T22:41:19.457Z,6.49
2022-10-05T22:43:50.757Z,6.53
2022-10-05T22:46:18.304Z,6.53
2022-10-05T22:48:44.997Z,6.50
2022-10-05T22:51:11.600Z,6.56
2022-10-05T22:53:38.241Z,6.58
2022-10-05T22:56:09.251Z,6.55
2022-10-05T22:58:36.644Z,6.60
2022-10-05T23:01:05.165Z,6.60
2022-10-05T23:03:31.919Z,6.58
2022-10-05T23:06:03.618Z,6.62
2022-10-05T23:08:31.215Z,6.64
2022-10-05T23:11:17.706Z,6.66
2022-10-05T23:13:44.391Z,6.68
2022-10-05T23:16:12.600Z,6.72
2022-10-05T23:18:39.767Z,6.74
2022-10-05T23:21:09.798Z,6.77
2022-10-05T23:23:37.416Z,6.79
2022-10-05T23:26:05.195Z,6.80
2022-10-05T23:28:32.235Z,6.80
2022-10-05T23:31:03.848Z,6.82
2022-10-05T23:33:30.820Z,6.76
2022-10-05T23:36:01.754Z,6.79
2022-10-05T23:38:28.840Z,6.77
2022-10-05T23:40:56.297Z,6.69
2022-10-05T23:43:22.934Z,6.69
2022-10-05T23:45:49.629Z,6.70
2022-10-05T23:48:16.329Z,6.78
2022-10-05T23:50:45.519Z,6.78
2022-10-05T23:53:12.552Z,6.79
2022-10-05T23:55:39.205Z,6.82
2022-10-05T23:58:05.815Z,6.88
